sensor_id;sensor_type;location;lat;lon;timestamp;P1;durP1;ratioP1;P2;durP2;ratioP2
21943;SDS011;11136;48.778;9.126;2023-02-15T00:01:15;32.80;;;15.10;;
21943;SDS011;11136;48.778;9.126;2023-02-15T00:03:40;27.15;;;14.82;;
21943;SDS011;11136;48.778;9.126;2023-02-15T00:06:06;22.13;;;13.60;;
21943;SDS011;11136;48.778;9.126;2023-02-15T00:08:32;24.90;;;15.07;;
21943;SDS011;11136;48.778;9.126;2023-02-15T00:11:08;27.60;;;15.55;;
21943;SDS011;11136;48.778;9.126;2023-02-15T00:13:35;28.83;;;15.57;;
21943;SDS011;11136;48.778;9.126;2023-02-15T00:16:05;29.92;;;15.60;;
21943;SDS011;11136;48.778;9.126;2023-02-15T00:18:32;27.20;;;14.40;;
21943;SDS011;11136;48.778;9.126;2023-02-15T00:20:58;30.17;;;16.60;;
21943;SDS011;11136;48.778;9.126;2023-02-15T00:23:27;24.90;;;14.48;;
21943;SDS011;11136;48.778;9.126;2023-02-15T00:26:02;24.02;;;14.25;;
21943;SDS011;11136;48.778;9.126;2023-02-15T00:28:37;27.08;;;13.80;;
21943;SDS011;11136;48.778;9.126;2023-02-15T00:33:29;22.95;;;13.25;;
21943;SDS011;11136;48.778;9.126;2023-02-15T00:35:56;21.40;;;12.85;;
21943;SDS011;11136;48.778;9.126;2023-02-15T00:38:22;32.60;;;14.18;;
21943;SDS011;11136;48.778;9.126;2023-02-15T00:40:52;26.02;;;14.68;;
21943;SDS011;11136;48.778;9.126;2023-02-15T00:43:21;22.10;;;13.43;;
21943;SDS011;11136;48.778;9.126;2023-02-15T00:45:47;22.52;;;13.73;;
21943;SDS011;11136;48.778;9.126;2023-02-15T00:48:12;30.02;;;14.45;;
21943;SDS011;11136;48.778;9.126;2023-02-15T00:50:38;24.08;;;14.57;;
21943;SDS011;11136;48.778;9.126;2023-02-15T00:53:04;24.13;;;13.23;;
21943;SDS011;11136;48.778;9.126;2023-02-15T00:55:30;22.42;;;13.48;;
21943;SDS011;11136;48.778;9.126;2023-02-15T00:57:55;27.60;;;13.57;;
21943;SDS011;11136;48.778;9.126;2023-02-15T01:00:21;26.02;;;14.55;;
21943;SDS011;11136;48.778;9.126;2023-02-15T01:02:46;27.00;;;14.30;;
21943;SDS011;11136;48.778;9.126;2023-02-15T01:05:12;26.02;;;13.35;;
21943;SDS011;11136;48.778;9.126;2023-02-15T01:07:37;24.20;;;14.13;;
21943;SDS011;11136;48.778;9.126;2023-02-15T01:10:04;23.33;;;12.50;;
21943;SDS011;11136;48.778;9.126;2023-02-15T01:12:31;24.80;;;13.45;;
21943;SDS011;11136;48.778;9.126;2023-02-15T01:14:57;22.02;;;12.98;;
21943;SDS011;11136;48.778;9.126;2023-02-15T01:17:22;22.50;;;13.20;;
21943;SDS011;11136;48.778;9.126;2023-02-15T01:19:48;21.80;;;12.35;;
21943;SDS011;11136;48.778;9.126;2023-02-15T01:22:13;23.77;;;14.02;;
21943;SDS011;11136;48.778;9.126;2023-02-15T01:24:39;22.13;;;12.63;;
21943;SDS011;11136;48.778;9.126;2023-02-15T01:27:04;20.13;;;12.88;;
21943;SDS011;11136;48.778;9.126;2023-02-15T01:29:30;20.08;;;13.10;;
21943;SDS011;11136;48.778;9.126;2023-02-15T01:31:55;20.38;;;12.02;;
21943;SDS011;11136;48.778;9.126;2023-02-15T01:34:22;26.35;;;12.52;;
21943;SDS011;11136;48.778;9.126;2023-02-15T01:36:47;21.45;;;12.55;;
21943;SDS011;11136;48.778;9.126;2023-02-15T01:39:13;22.80;;;12.07;;
21943;SDS011;11136;48.778;9.126;2023-02-15T01:41:39;20.13;;;12.38;;
21943;SDS011;11136;48.778;9.126;2023-02-15T01:47:12;20.42;;;11.50;;
21943;SDS011;11136;48.778;9.126;2023-02-15T01:49:45;19.15;;;12.00;;
21943;SDS011;11136;48.778;9.126;2023-02-15T01:52:13;21.85;;;12.85;;
21943;SDS011;11136;48.778;9.126;2023-02-15T01:54:40;20.08;;;12.65;;
21943;SDS011;11136;48.778;9.126;2023-02-15T01:57:09;20.88;;;12.68;;
21943;SDS011;11136;48.778;9.126;2023-02-15T01:59:38;21.02;;;12.43;;
21943;SDS011;11136;48.778;9.126;2023-02-15T02:02:07;18.52;;;12.25;;
21943;SDS011;11136;48.778;9.126;2023-02-15T02:04:41;22.08;;;12.38;;
21943;SDS011;11136;48.778;9.126;2023-02-15T02:07:14;21.27;;;12.10;;
21943;SDS011;11136;48.778;9.126;2023-02-15T02:09:42;19.55;;;11.68;;
21943;SDS011;11136;48.778;9.126;2023-02-15T02:12:08;21.70;;;11.95;;
21943;SDS011;11136;48.778;9.126;2023-02-15T02:14:35;21.10;;;12.55;;
21943;SDS011;11136;48.778;9.126;2023-02-15T02:17:07;20.13;;;11.73;;
21943;SDS011;11136;48.778;9.126;2023-02-15T02:22:53;28.80;;;17.38;;
21943;SDS011;11136;48.778;9.126;2023-02-15T02:25:27;32.88;;;20.50;;
21943;SDS011;11136;48.778;9.126;2023-02-15T02:36:31;19.38;;;12.88;;
21943;SDS011;11136;48.778;9.126;2023-02-15T02:39:22;22.13;;;12.18;;
21943;SDS011;11136;48.778;9.126;2023-02-15T02:42:14;22.95;;;12.88;;
21943;SDS011;11136;48.778;9.126;2023-02-15T02:44:49;23.10;;;13.30;;
21943;SDS011;11136;48.778;9.126;2023-02-15T02:47:25;18.98;;;11.32;;
21943;SDS011;11136;48.778;9.126;2023-02-15T02:50:03;19.70;;;12.73;;
21943;SDS011;11136;48.778;9.126;2023-02-15T02:58:03;24.63;;;13.35;;
21943;SDS011;11136;48.778;9.126;2023-02-15T03:00:40;25.08;;;13.15;;
21943;SDS011;11136;48.778;9.126;2023-02-15T03:03:11;19.63;;;12.30;;
21943;SDS011;11136;48.778;9.126;2023-02-15T03:08:09;22.30;;;12.80;;
21943;SDS011;11136;48.778;9.126;2023-02-15T03:10:36;18.67;;;11.50;;
21943;SDS011;11136;48.778;9.126;2023-02-15T03:13:03;21.65;;;12.15;;
21943;SDS011;11136;48.778;9.126;2023-02-15T03:15:29;24.52;;;13.45;;
21943;SDS011;11136;48.778;9.126;2023-02-15T03:18:18;24.52;;;13.05;;
21943;SDS011;11136;48.778;9.126;2023-02-15T03:20:47;23.98;;;13.82;;
21943;SDS011;11136;48.778;9.126;2023-02-15T03:23:16;24.63;;;14.82;;
21943;SDS011;11136;48.778;9.126;2023-02-15T03:25:47;23.67;;;13.75;;
21943;SDS011;11136;48.778;9.126;2023-02-15T03:28:21;23.05;;;12.30;;
21943;SDS011;11136;48.778;9.126;2023-02-15T03:30:52;22.63;;;13.02;;
21943;SDS011;11136;48.778;9.126;2023-02-15T03:33:20;21.83;;;13.23;;
21943;SDS011;11136;48.778;9.126;2023-02-15T03:36:02;23.67;;;11.70;;
21943;SDS011;11136;48.778;9.126;2023-02-15T03:41:24;19.90;;;11.70;;
21943;SDS011;11136;48.778;9.126;2023-02-15T03:43:58;20.23;;;12.05;;
21943;SDS011;11136;48.778;9.126;2023-02-15T03:46:35;24.35;;;12.40;;
21943;SDS011;11136;48.778;9.126;2023-02-15T03:49:14;19.20;;;11.65;;
21943;SDS011;11136;48.778;9.126;2023-02-15T03:51:44;21.02;;;12.23;;
21943;SDS011;11136;48.778;9.126;2023-02-15T03:54:21;19.42;;;12.25;;
21943;SDS011;11136;48.778;9.126;2023-02-15T03:57:17;18.88;;;11.90;;
21943;SDS011;11136;48.778;9.126;2023-02-15T04:05:31;22.33;;;12.77;;
21943;SDS011;11136;48.778;9.126;2023-02-15T04:07:56;20.45;;;11.05;;
21943;SDS011;11136;48.778;9.126;2023-02-15T04:10:22;25.08;;;12.75;;
21943;SDS011;11136;48.778;9.126;2023-02-15T04:13:06;20.40;;;11.93;;
21943;SDS011;11136;48.778;9.126;2023-02-15T04:15:31;21.80;;;11.65;;
21943;SDS011;11136;48.778;9.126;2023-02-15T04:18:15;20.98;;;12.20;;
21943;SDS011;11136;48.778;9.126;2023-02-15T04:20:44;20.90;;;11.77;;
21943;SDS011;11136;48.778;9.126;2023-02-15T04:23:29;21.42;;;11.85;;
21943;SDS011;11136;48.778;9.126;2023-02-15T04:26:13;24.77;;;11.95;;
21943;SDS011;11136;48.778;9.126;2023-02-15T04:28:38;19.85;;;11.68;;
21943;SDS011;11136;48.778;9.126;2023-02-15T04:31:04;20.23;;;11.57;;
21943;SDS011;11136;48.778;9.126;2023-02-15T04:33:30;20.98;;;11.70;;
21943;SDS011;11136;48.778;9.126;2023-02-15T04:35:55;18.88;;;12.27;;
21943;SDS011;11136;48.778;9.126;2023-02-15T04:38:21;23.30;;;13.05;;
21943;SDS011;11136;48.778;9.126;2023-02-15T04:40:50;21.00;;;12.85;;
21943;SDS011;11136;48.778;9.126;2023-02-15T04:43:17;24.67;;;11.70;;
21943;SDS011;11136;48.778;9.126;2023-02-15T04:45:50;24.92;;;12.32;;
21943;SDS011;11136;48.778;9.126;2023-02-15T04:48:16;19.05;;;11.25;;
21943;SDS011;11136;48.778;9.126;2023-02-15T04:50:43;20.52;;;11.23;;
21943;SDS011;11136;48.778;9.126;2023-02-15T04:53:08;22.08;;;12.82;;
21943;SDS011;11136;48.778;9.126;2023-02-15T04:55:34;22.45;;;11.98;;
21943;SDS011;11136;48.778;9.126;2023-02-15T04:58:00;26.00;;;13.85;;
21943;SDS011;11136;48.778;9.126;2023-02-15T05:00:25;25.15;;;13.95;;
21943;SDS011;11136;48.778;9.126;2023-02-15T05:02:52;22.83;;;12.82;;
21943;SDS011;11136;48.778;9.126;2023-02-15T05:05:18;23.65;;;13.52;;
21943;SDS011;11136;48.778;9.126;2023-02-15T05:07:43;26.20;;;13.85;;
21943;SDS011;11136;48.778;9.126;2023-02-15T05:10:09;21.25;;;12.55;;
21943;SDS011;11136;48.778;9.126;2023-02-15T05:12:34;22.83;;;12.73;;
21943;SDS011;11136;48.778;9.126;2023-02-15T05:15:00;22.50;;;12.40;;
21943;SDS011;11136;48.778;9.126;2023-02-15T05:17:25;22.50;;;12.48;;
21943;SDS011;11136;48.778;9.126;2023-02-15T05:19:51;25.05;;;13.63;;
21943;SDS011;11136;48.778;9.126;2023-02-15T05:22:16;22.98;;;12.93;;
21943;SDS011;11136;48.778;9.126;2023-02-15T05:24:42;22.00;;;12.05;;
21943;SDS011;11136;48.778;9.126;2023-02-15T05:27:26;21.73;;;12.32;;
21943;SDS011;11136;48.778;9.126;2023-02-15T05:30:10;20.48;;;12.63;;
21943;SDS011;11136;48.778;9.126;2023-02-15T05:32:37;21.13;;;12.15;;
21943;SDS011;11136;48.778;9.126;2023-02-15T05:35:04;20.10;;;11.63;;
21943;SDS011;11136;48.778;9.126;2023-02-15T05:37:30;23.48;;;13.70;;
21943;SDS011;11136;48.778;9.126;2023-02-15T05:39:55;17.33;;;10.35;;
21943;SDS011;11136;48.778;9.126;2023-02-15T05:42:21;28.08;;;14.10;;
21943;SDS011;11136;48.778;9.126;2023-02-15T05:44:46;20.88;;;12.80;;
21943;SDS011;11136;48.778;9.126;2023-02-15T05:47:12;21.60;;;12.55;;
21943;SDS011;11136;48.778;9.126;2023-02-15T05:49:37;22.95;;;13.63;;
21943;SDS011;11136;48.778;9.126;2023-02-15T05:52:03;25.33;;;13.18;;
21943;SDS011;11136;48.778;9.126;2023-02-15T05:54:29;21.65;;;13.18;;
21943;SDS011;11136;48.778;9.126;2023-02-15T05:56:54;22.08;;;11.95;;
21943;SDS011;11136;48.778;9.126;2023-02-15T05:59:20;18.98;;;11.68;;
21943;SDS011;11136;48.778;9.126;2023-02-15T06:01:45;21.77;;;14.02;;
21943;SDS011;11136;48.778;9.126;2023-02-15T06:04:11;22.35;;;12.20;;
21943;SDS011;11136;48.778;9.126;2023-02-15T06:06:37;22.27;;;13.07;;
21943;SDS011;11136;48.778;9.126;2023-02-15T06:09:03;21.92;;;12.25;;
21943;SDS011;11136;48.778;9.126;2023-02-15T06:11:28;21.35;;;12.32;;
21943;SDS011;11136;48.778;9.126;2023-02-15T06:13:54;22.42;;;12.63;;
21943;SDS011;11136;48.778;9.126;2023-02-15T06:16:20;22.25;;;13.68;;
21943;SDS011;11136;48.778;9.126;2023-02-15T06:18:45;24.75;;;12.50;;
21943;SDS011;11136;48.778;9.126;2023-02-15T06:21:11;25.50;;;12.73;;
21943;SDS011;11136;48.778;9.126;2023-02-15T06:23:37;18.67;;;12.30;;
21943;SDS011;11136;48.778;9.126;2023-02-15T06:26:03;21.95;;;12.25;;
21943;SDS011;11136;48.778;9.126;2023-02-15T06:28:28;20.70;;;12.75;;
21943;SDS011;11136;48.778;9.126;2023-02-15T06:30:54;22.95;;;12.45;;
21943;SDS011;11136;48.778;9.126;2023-02-15T06:33:19;22.63;;;12.65;;
21943;SDS011;11136;48.778;9.126;2023-02-15T06:35:45;23.67;;;13.43;;
21943;SDS011;11136;48.778;9.126;2023-02-15T06:38:11;23.38;;;14.27;;
21943;SDS011;11136;48.778;9.126;2023-02-15T06:40:36;25.73;;;13.80;;
21943;SDS011;11136;48.778;9.126;2023-02-15T06:43:02;23.17;;;13.63;;
21943;SDS011;11136;48.778;9.126;2023-02-15T06:45:28;26.90;;;14.65;;
21943;SDS011;11136;48.778;9.126;2023-02-15T06:47:53;26.48;;;14.35;;
21943;SDS011;11136;48.778;9.126;2023-02-15T06:50:19;27.52;;;13.98;;
21943;SDS011;11136;48.778;9.126;2023-02-15T06:52:44;22.05;;;14.05;;
21943;SDS011;11136;48.778;9.126;2023-02-15T06:55:10;21.17;;;12.40;;
21943;SDS011;11136;48.778;9.126;2023-02-15T06:57:35;26.40;;;14.45;;
21943;SDS011;11136;48.778;9.126;2023-02-15T07:00:01;24.27;;;13.43;;
21943;SDS011;11136;48.778;9.126;2023-02-15T07:02:29;23.33;;;13.02;;
21943;SDS011;11136;48.778;9.126;2023-02-15T07:04:56;25.95;;;14.48;;
21943;SDS011;11136;48.778;9.126;2023-02-15T07:07:21;23.85;;;13.38;;
21943;SDS011;11136;48.778;9.126;2023-02-15T07:09:47;27.52;;;15.18;;
21943;SDS011;11136;48.778;9.126;2023-02-15T07:12:12;30.73;;;15.82;;
21943;SDS011;11136;48.778;9.126;2023-02-15T07:14:57;27.20;;;14.60;;
21943;SDS011;11136;48.778;9.126;2023-02-15T07:17:23;23.30;;;13.32;;
21943;SDS011;11136;48.778;9.126;2023-02-15T07:19:48;23.75;;;12.82;;
21943;SDS011;11136;48.778;9.126;2023-02-15T07:22:14;24.52;;;14.38;;
21943;SDS011;11136;48.778;9.126;2023-02-15T07:24:39;23.52;;;13.13;;
21943;SDS011;11136;48.778;9.126;2023-02-15T07:27:06;23.38;;;13.85;;
21943;SDS011;11136;48.778;9.126;2023-02-15T07:29:32;25.63;;;14.25;;
21943;SDS011;11136;48.778;9.126;2023-02-15T07:31:57;27.52;;;15.00;;
21943;SDS011;11136;48.778;9.126;2023-02-15T07:34:23;26.67;;;14.57;;
21943;SDS011;11136;48.778;9.126;2023-02-15T07:36:50;26.70;;;15.38;;
21943;SDS011;11136;48.778;9.126;2023-02-15T07:39:16;25.20;;;14.35;;
21943;SDS011;11136;48.778;9.126;2023-02-15T07:41:42;27.23;;;15.30;;
21943;SDS011;11136;48.778;9.126;2023-02-15T07:44:11;27.92;;;15.25;;
21943;SDS011;11136;48.778;9.126;2023-02-15T07:46:38;25.58;;;15.38;;
21943;SDS011;11136;48.778;9.126;2023-02-15T07:49:04;23.30;;;14.68;;
21943;SDS011;11136;48.778;9.126;2023-02-15T07:51:29;22.13;;;13.35;;
21943;SDS011;11136;48.778;9.126;2023-02-15T07:53:55;26.00;;;15.20;;
21943;SDS011;11136;48.778;9.126;2023-02-15T07:56:20;25.20;;;14.77;;
21943;SDS011;11136;48.778;9.126;2023-02-15T07:58:46;28.45;;;14.48;;
21943;SDS011;11136;48.778;9.126;2023-02-15T08:03:47;25.25;;;13.75;;
21943;SDS011;11136;48.778;9.126;2023-02-15T08:06:13;25.35;;;13.70;;
21943;SDS011;11136;48.778;9.126;2023-02-15T08:08:39;25.23;;;13.68;;
21943;SDS011;11136;48.778;9.126;2023-02-15T08:11:07;22.00;;;12.93;;
21943;SDS011;11136;48.778;9.126;2023-02-15T08:18:50;24.38;;;13.80;;
21943;SDS011;11136;48.778;9.126;2023-02-15T08:21:16;21.65;;;12.95;;
21943;SDS011;11136;48.778;9.126;2023-02-15T08:23:42;21.60;;;13.52;;
21943;SDS011;11136;48.778;9.126;2023-02-15T08:26:08;26.65;;;14.45;;
21943;SDS011;11136;48.778;9.126;2023-02-15T08:28:34;23.73;;;13.98;;
21943;SDS011;11136;48.778;9.126;2023-02-15T08:31:06;26.75;;;14.88;;
21943;SDS011;11136;48.778;9.126;2023-02-15T08:33:33;22.10;;;13.52;;
21943;SDS011;11136;48.778;9.126;2023-02-15T08:36:20;20.95;;;13.25;;
21943;SDS011;11136;48.778;9.126;2023-02-15T08:38:47;22.70;;;13.10;;
21943;SDS011;11136;48.778;9.126;2023-02-15T08:43:43;22.85;;;14.57;;
21943;SDS011;11136;48.778;9.126;2023-02-15T08:46:11;23.77;;;14.40;;
21943;SDS011;11136;48.778;9.126;2023-02-15T08:48:38;22.50;;;13.75;;
21943;SDS011;11136;48.778;9.126;2023-02-15T08:51:04;23.52;;;14.50;;
21943;SDS011;11136;48.778;9.126;2023-02-15T08:53:35;22.77;;;13.95;;
21943;SDS011;11136;48.778;9.126;2023-02-15T08:56:02;23.73;;;15.23;;
21943;SDS011;11136;48.778;9.126;2023-02-15T08:58:28;23.42;;;14.15;;
21943;SDS011;11136;48.778;9.126;2023-02-15T09:00:54;23.65;;;14.40;;
21943;SDS011;11136;48.778;9.126;2023-02-15T09:03:19;24.17;;;14.23;;
21943;SDS011;11136;48.778;9.126;2023-02-15T09:05:45;21.27;;;14.32;;
21943;SDS011;11136;48.778;9.126;2023-02-15T09:08:10;25.95;;;14.50;;
21943;SDS011;11136;48.778;9.126;2023-02-15T09:10:36;18.70;;;13.45;;
21943;SDS011;11136;48.778;9.126;2023-02-15T09:13:01;21.15;;;13.95;;
21943;SDS011;11136;48.778;9.126;2023-02-15T09:15:27;22.15;;;14.00;;
21943;SDS011;11136;48.778;9.126;2023-02-15T09:17:52;26.83;;;16.15;;
21943;SDS011;11136;48.778;9.126;2023-02-15T09:20:18;24.08;;;15.18;;
21943;SDS011;11136;48.778;9.126;2023-02-15T09:22:44;21.80;;;13.90;;
21943;SDS011;11136;48.778;9.126;2023-02-15T09:25:09;22.52;;;14.07;;
21943;SDS011;11136;48.778;9.126;2023-02-15T09:27:35;21.70;;;14.52;;
21943;SDS011;11136;48.778;9.126;2023-02-15T09:30:01;24.38;;;14.27;;
21943;SDS011;11136;48.778;9.126;2023-02-15T09:32:28;22.20;;;13.85;;
21943;SDS011;11136;48.778;9.126;2023-02-15T09:34:53;23.17;;;14.30;;
21943;SDS011;11136;48.778;9.126;2023-02-15T09:37:19;22.52;;;14.18;;
21943;SDS011;11136;48.778;9.126;2023-02-15T09:39:44;24.23;;;14.45;;
21943;SDS011;11136;48.778;9.126;2023-02-15T09:45:21;22.67;;;14.88;;
21943;SDS011;11136;48.778;9.126;2023-02-15T09:56:22;25.55;;;14.68;;
21943;SDS011;11136;48.778;9.126;2023-02-15T09:59:11;24.52;;;14.80;;
21943;SDS011;11136;48.778;9.126;2023-02-15T10:07:40;25.33;;;15.38;;
21943;SDS011;11136;48.778;9.126;2023-02-15T10:16:16;27.08;;;15.45;;
21943;SDS011;11136;48.778;9.126;2023-02-15T10:18:53;25.73;;;14.40;;
21943;SDS011;11136;48.778;9.126;2023-02-15T10:26:44;26.90;;;15.20;;
21943;SDS011;11136;48.778;9.126;2023-02-15T10:29:18;23.15;;;15.55;;
21943;SDS011;11136;48.778;9.126;2023-02-15T10:31:49;26.45;;;16.80;;
21943;SDS011;11136;48.778;9.126;2023-02-15T10:39:36;23.85;;;15.32;;
21943;SDS011;11136;48.778;9.126;2023-02-15T10:42:11;28.55;;;16.23;;
21943;SDS011;11136;48.778;9.126;2023-02-15T10:47:50;27.90;;;15.90;;
21943;SDS011;11136;48.778;9.126;2023-02-15T10:53:12;25.13;;;16.67;;
21943;SDS011;11136;48.778;9.126;2023-02-15T10:58:35;25.45;;;14.85;;
21943;SDS011;11136;48.778;9.126;2023-02-15T11:06:37;22.17;;;15.68;;
21943;SDS011;11136;48.778;9.126;2023-02-15T11:09:09;22.80;;;15.07;;
21943;SDS011;11136;48.778;9.126;2023-02-15T11:11:38;27.98;;;16.30;;
21943;SDS011;11136;48.778;9.126;2023-02-15T11:14:13;37.30;;;16.25;;
21943;SDS011;11136;48.778;9.126;2023-02-15T11:16:55;30.02;;;15.63;;
21943;SDS011;11136;48.778;9.126;2023-02-15T11:19:33;25.77;;;16.38;;
21943;SDS011;11136;48.778;9.126;2023-02-15T11:22:03;28.30;;;16.20;;
21943;SDS011;11136;48.778;9.126;2023-02-15T11:24:31;22.73;;;15.20;;
21943;SDS011;11136;48.778;9.126;2023-02-15T11:32:22;29.70;;;16.08;;
21943;SDS011;11136;48.778;9.126;2023-02-15T11:37:53;28.98;;;16.23;;
21943;SDS011;11136;48.778;9.126;2023-02-15T11:40:23;25.05;;;15.30;;
21943;SDS011;11136;48.778;9.126;2023-02-15T11:42:55;30.30;;;17.10;;
21943;SDS011;11136;48.778;9.126;2023-02-15T11:45:30;24.65;;;16.25;;
21943;SDS011;11136;48.778;9.126;2023-02-15T11:47:58;25.67;;;16.02;;
21943;SDS011;11136;48.778;9.126;2023-02-15T11:50:31;23.65;;;14.65;;
21943;SDS011;11136;48.778;9.126;2023-02-15T11:53:01;30.27;;;16.30;;
21943;SDS011;11136;48.778;9.126;2023-02-15T11:55:29;26.25;;;15.25;;
21943;SDS011;11136;48.778;9.126;2023-02-15T11:58:08;27.48;;;15.98;;
21943;SDS011;11136;48.778;9.126;2023-02-15T12:00:56;30.10;;;17.48;;
21943;SDS011;11136;48.778;9.126;2023-02-15T12:03:28;27.05;;;16.25;;
21943;SDS011;11136;48.778;9.126;2023-02-15T12:06:11;30.17;;;16.80;;
21943;SDS011;11136;48.778;9.126;2023-02-15T12:08:43;31.88;;;18.00;;
21943;SDS011;11136;48.778;9.126;2023-02-15T12:11:19;27.23;;;16.92;;
21943;SDS011;11136;48.778;9.126;2023-02-15T12:13:57;26.90;;;17.02;;
21943;SDS011;11136;48.778;9.126;2023-02-15T12:16:25;26.33;;;17.42;;
21943;SDS011;11136;48.778;9.126;2023-02-15T12:18:53;29.67;;;18.48;;
21943;SDS011;11136;48.778;9.126;2023-02-15T12:21:32;31.92;;;17.58;;
21943;SDS011;11136;48.778;9.126;2023-02-15T12:24:10;34.83;;;19.55;;
21943;SDS011;11136;48.778;9.126;2023-02-15T12:27:02;29.38;;;17.25;;
21943;SDS011;11136;48.778;9.126;2023-02-15T12:29:42;24.90;;;17.08;;
21943;SDS011;11136;48.778;9.126;2023-02-15T12:32:18;34.38;;;18.23;;
21943;SDS011;11136;48.778;9.126;2023-02-15T12:34:48;30.63;;;18.60;;
21943;SDS011;11136;48.778;9.126;2023-02-15T12:37:17;26.23;;;18.25;;
21943;SDS011;11136;48.778;9.126;2023-02-15T12:40:30;31.30;;;18.75;;
21943;SDS011;11136;48.778;9.126;2023-02-15T12:43:08;33.97;;;18.67;;
21943;SDS011;11136;48.778;9.126;2023-02-15T12:45:50;32.03;;;18.35;;
21943;SDS011;11136;48.778;9.126;2023-02-15T12:48:17;32.78;;;17.70;;
21943;SDS011;11136;48.778;9.126;2023-02-15T12:55:56;31.67;;;18.33;;
21943;SDS011;11136;48.778;9.126;2023-02-15T12:58:29;27.38;;;17.75;;
21943;SDS011;11136;48.778;9.126;2023-02-15T13:01:16;30.08;;;18.90;;
21943;SDS011;11136;48.778;9.126;2023-02-15T13:03:54;29.95;;;18.08;;
21943;SDS011;11136;48.778;9.126;2023-02-15T13:06:26;30.63;;;18.15;;
21943;SDS011;11136;48.778;9.126;2023-02-15T13:08:54;31.50;;;17.45;;
21943;SDS011;11136;48.778;9.126;2023-02-15T13:11:26;31.88;;;18.40;;
21943;SDS011;11136;48.778;9.126;2023-02-15T13:14:00;30.55;;;18.00;;
21943;SDS011;11136;48.778;9.126;2023-02-15T13:18:55;32.20;;;18.23;;
21943;SDS011;11136;48.778;9.126;2023-02-15T13:21:33;30.33;;;17.55;;
21943;SDS011;11136;48.778;9.126;2023-02-15T13:24:05;31.30;;;17.52;;
21943;SDS011;11136;48.778;9.126;2023-02-15T13:26:38;34.35;;;17.58;;
21943;SDS011;11136;48.778;9.126;2023-02-15T13:29:11;27.05;;;18.85;;
21943;SDS011;11136;48.778;9.126;2023-02-15T13:31:51;23.88;;;17.48;;
21943;SDS011;11136;48.778;9.126;2023-02-15T13:34:22;23.23;;;17.38;;
21943;SDS011;11136;48.778;9.126;2023-02-15T13:36:51;29.70;;;17.52;;
21943;SDS011;11136;48.778;9.126;2023-02-15T13:39:36;29.83;;;17.92;;
21943;SDS011;11136;48.778;9.126;2023-02-15T13:42:14;25.52;;;17.67;;
21943;SDS011;11136;48.778;9.126;2023-02-15T13:45:19;30.45;;;17.20;;
21943;SDS011;11136;48.778;9.126;2023-02-15T13:54:25;29.55;;;17.83;;
21943;SDS011;11136;48.778;9.126;2023-02-15T13:57:12;29.75;;;18.48;;
21943;SDS011;11136;48.778;9.126;2023-02-15T13:59:57;29.10;;;16.67;;
21943;SDS011;11136;48.778;9.126;2023-02-15T14:11:27;27.95;;;17.75;;
21943;SDS011;11136;48.778;9.126;2023-02-15T14:14:25;27.23;;;17.13;;
21943;SDS011;11136;48.778;9.126;2023-02-15T14:22:23;31.13;;;17.10;;
21943;SDS011;11136;48.778;9.126;2023-02-15T14:30:29;24.55;;;17.00;;
21943;SDS011;11136;48.778;9.126;2023-02-15T14:32:59;24.58;;;16.75;;
21943;SDS011;11136;48.778;9.126;2023-02-15T14:35:34;28.05;;;15.60;;
21943;SDS011;11136;48.778;9.126;2023-02-15T14:48:30;19.90;;;13.50;;
21943;SDS011;11136;48.778;9.126;2023-02-15T14:50:58;27.42;;;14.57;;
21943;SDS011;11136;48.778;9.126;2023-02-15T14:58:37;26.00;;;14.30;;
21943;SDS011;11136;48.778;9.126;2023-02-15T15:01:17;22.90;;;14.60;;
21943;SDS011;11136;48.778;9.126;2023-02-15T15:04:07;25.80;;;17.00;;
21943;SDS011;11136;48.778;9.126;2023-02-15T15:06:37;23.50;;;15.30;;
21943;SDS011;11136;48.778;9.126;2023-02-15T15:09:12;23.85;;;15.02;;
21943;SDS011;11136;48.778;9.126;2023-02-15T15:11:45;26.27;;;15.57;;
21943;SDS011;11136;48.778;9.126;2023-02-15T15:16:56;26.65;;;16.40;;
21943;SDS011;11136;48.778;9.126;2023-02-15T15:22:20;26.80;;;15.52;;
21943;SDS011;11136;48.778;9.126;2023-02-15T15:24:49;26.25;;;15.50;;
21943;SDS011;11136;48.778;9.126;2023-02-15T15:30:07;23.95;;;15.65;;
21943;SDS011;11136;48.778;9.126;2023-02-15T15:41:16;22.48;;;14.13;;
21943;SDS011;11136;48.778;9.126;2023-02-15T15:49:37;33.90;;;15.90;;
21943;SDS011;11136;48.778;9.126;2023-02-15T15:52:36;24.08;;;14.60;;
21943;SDS011;11136;48.778;9.126;2023-02-15T15:55:04;22.38;;;14.70;;
21943;SDS011;11136;48.778;9.126;2023-02-15T15:57:39;30.58;;;16.00;;
21943;SDS011;11136;48.778;9.126;2023-02-15T16:02:52;26.42;;;15.15;;
21943;SDS011;11136;48.778;9.126;2023-02-15T16:05:18;22.85;;;14.65;;
21943;SDS011;11136;48.778;9.126;2023-02-15T16:07:44;25.95;;;14.70;;
21943;SDS011;11136;48.778;9.126;2023-02-15T16:12:47;27.30;;;14.23;;
21943;SDS011;11136;48.778;9.126;2023-02-15T16:15:16;27.25;;;15.23;;
21943;SDS011;11136;48.778;9.126;2023-02-15T16:17:45;24.92;;;14.65;;
21943;SDS011;11136;48.778;9.126;2023-02-15T16:20:15;23.77;;;14.07;;
21943;SDS011;11136;48.778;9.126;2023-02-15T16:22:55;25.15;;;15.93;;
21943;SDS011;11136;48.778;9.126;2023-02-15T16:25:35;28.45;;;15.50;;
21943;SDS011;11136;48.778;9.126;2023-02-15T16:28:12;25.05;;;14.35;;
21943;SDS011;11136;48.778;9.126;2023-02-15T16:30:39;24.75;;;14.95;;
21943;SDS011;11136;48.778;9.126;2023-02-15T16:33:07;24.98;;;14.98;;
21943;SDS011;11136;48.778;9.126;2023-02-15T16:35:39;26.33;;;15.65;;
21943;SDS011;11136;48.778;9.126;2023-02-15T16:38:17;34.63;;;16.23;;
21943;SDS011;11136;48.778;9.126;2023-02-15T16:40:51;23.63;;;15.00;;
21943;SDS011;11136;48.778;9.126;2023-02-15T16:43:22;22.85;;;14.95;;
21943;SDS011;11136;48.778;9.126;2023-02-15T16:45:51;24.13;;;14.30;;
21943;SDS011;11136;48.778;9.126;2023-02-15T16:48:27;23.60;;;13.85;;
21943;SDS011;11136;48.778;9.126;2023-02-15T16:50:54;24.08;;;15.13;;
21943;SDS011;11136;48.778;9.126;2023-02-15T16:53:26;28.23;;;15.77;;
21943;SDS011;11136;48.778;9.126;2023-02-15T16:55:54;27.58;;;15.85;;
21943;SDS011;11136;48.778;9.126;2023-02-15T16:58:54;27.90;;;15.30;;
21943;SDS011;11136;48.778;9.126;2023-02-15T17:01:15;25.45;;;14.90;;
21943;SDS011;11136;48.778;9.126;2023-02-15T17:03:44;25.02;;;15.32;;
21943;SDS011;11136;48.778;9.126;2023-02-15T17:06:21;24.20;;;15.18;;
21943;SDS011;11136;48.778;9.126;2023-02-15T17:08:48;22.55;;;14.70;;
21943;SDS011;11136;48.778;9.126;2023-02-15T17:11:15;25.77;;;14.73;;
21943;SDS011;11136;48.778;9.126;2023-02-15T17:16:49;25.27;;;13.43;;
21943;SDS011;11136;48.778;9.126;2023-02-15T17:19:21;26.27;;;15.48;;
21943;SDS011;11136;48.778;9.126;2023-02-15T17:21:56;24.80;;;13.75;;
21943;SDS011;11136;48.778;9.126;2023-02-15T17:24:37;25.83;;;14.80;;
21943;SDS011;11136;48.778;9.126;2023-02-15T17:27:06;21.60;;;13.40;;
21943;SDS011;11136;48.778;9.126;2023-02-15T17:29:38;28.50;;;16.02;;
21943;SDS011;11136;48.778;9.126;2023-02-15T17:32:11;22.90;;;13.55;;
21943;SDS011;11136;48.778;9.126;2023-02-15T17:37:26;22.00;;;12.85;;
21943;SDS011;11136;48.778;9.126;2023-02-15T17:39:52;21.92;;;12.93;;
21943;SDS011;11136;48.778;9.126;2023-02-15T17:42:18;20.95;;;13.57;;
21943;SDS011;11136;48.778;9.126;2023-02-15T17:44:43;23.98;;;13.18;;